Time;durP1;ratioP1;P1;durP2;ratioP2;P2;SDS_P1;SDS_P2;PMS_P1;PMS_P2;Temp;Humidity;BMP_temperature;BMP_pressure;BME280_temperature;BME280_humidity;BME280_pressure;Samples;Min_cycle;Max_cycle;Signal;HPM_P1;HPM_P2
2023/01/04 00:01:02;;;;;;;7.65;2.00;;;8.40;99.90;;;;;;5037162;28;20040;-87
2023/01/04 00:03:27;;;;;;;;;;;8.40;99.90;;;;;;5037693;28;20055;-90
2023/01/04 00:05:53;;;;;;;6.70;1.70;;;8.30;99.90;;;;;;5037397;28;19920;-87
2023/01/04 00:08:19;;;;;;;10.32;1.63;;;8.40;99.90;;;;;;5054004;28;20541;-90
2023/01/04 00:10:44;;;;;;;6.25;1.80;;;8.30;99.90;;;;;;5053889;28;20053;-90
2023/01/04 00:13:10;;;;;;;10.13;2.22;;;8.40;99.90;;;;;;5037226;28;20406;-90
2023/01/04 00:15:35;;;;;;;6.45;1.67;;;8.30;99.90;;;;;;5053779;28;20131;-90
2023/01/04 00:18:01;;;;;;;8.85;2.22;;;8.30;99.90;;;;;;5054112;28;20040;-89
2023/01/04 00:20:26;;;;;;;5.25;2.13;;;8.30;99.90;;;;;;5037241;28;20498;-90
2023/01/04 00:22:52;;;;;;;10.88;2.20;;;8.30;99.90;;;;;;5037028;28;20094;-89
2023/01/04 00:25:18;;;;;;;6.72;1.88;;;8.30;99.90;;;;;;5053438;28;20620;-89
2023/01/04 00:27:43;;;;;;;5.32;1.63;;;8.30;99.90;;;;;;5036232;28;20036;-90
2023/01/04 00:30:09;;;;;;;5.57;2.05;;;8.30;99.90;;;;;;5036835;28;20128;-90
2023/01/04 00:32:35;;;;;;;9.00;1.98;;;8.40;99.90;;;;;;5053434;28;20036;-90
2023/01/04 00:35:00;;;;;;;7.80;1.90;;;8.30;99.90;;;;;;5036275;28;20045;-90
2023/01/04 00:37:26;;;;;;;9.48;2.05;;;8.40;99.90;;;;;;5037133;28;20047;-90
2023/01/04 00:39:51;;;;;;;7.40;2.08;;;8.40;99.90;;;;;;5053679;28;20032;-90
2023/01/04 00:42:17;;;;;;;9.63;2.33;;;8.30;99.90;;;;;;5037054;28;20661;-91
2023/01/04 00:44:43;;;;;;;10.50;2.13;;;8.30;99.90;;;;;;5052915;28;20490;-91
2023/01/04 00:47:09;;;;;;;9.13;2.03;;;8.40;99.90;;;;;;5052626;28;20033;-90
2023/01/04 00:49:34;;;;;;;9.38;2.00;;;8.30;99.90;;;;;;5036086;28;20036;-90
2023/01/04 00:52:00;;;;;;;8.25;2.45;;;8.30;99.90;;;;;;5052436;28;20413;-89
2023/01/04 00:54:26;;;;;;;7.95;2.53;;;8.30;99.90;;;;;;5036408;28;20044;-90
2023/01/04 00:56:52;;;;;;;9.38;2.30;;;8.20;99.90;;;;;;5053428;28;20040;-90
2023/01/04 00:59:19;;;;;;;7.40;2.25;;;8.30;99.90;;;;;;5053501;28;20033;-91
2023/01/04 01:01:46;;;;;;;6.88;2.00;;;8.20;99.90;;;;;;5036436;28;20730;-90
2023/01/04 01:04:13;;;;;;;9.93;2.38;;;8.30;99.90;;;;;;5036390;28;20041;-90
2023/01/04 01:06:39;;;;;;;6.65;2.20;;;8.20;99.90;;;;;;5052463;28;20731;-91
2023/01/04 01:09:05;;;;;;;7.65;2.05;;;8.20;99.90;;;;;;5036746;28;20039;-91
2023/01/04 01:11:31;;;;;;;5.68;2.15;;;8.20;99.90;;;;;;5052327;28;20090;-90
2023/01/04 01:13:58;;;;;;;11.52;2.28;;;8.20;99.90;;;;;;5051309;28;20494;-90
2023/01/04 01:16:24;;;;;;;8.57;1.80;;;8.20;99.90;;;;;;5052628;28;20147;-89
2023/01/04 01:18:50;;;;;;;7.57;1.85;;;8.30;99.90;;;;;;5035795;28;20071;-89
2023/01/04 01:21:21;;;;;;;7.90;1.83;;;8.20;99.90;;;;;;5067614;28;20078;-89
2023/01/04 01:23:48;;;;;;;7.63;1.67;;;8.20;99.90;;;;;;5072865;28;20047;-90
2023/01/04 01:26:17;;;;;;;8.10;1.85;;;8.30;99.90;;;;;;5056792;28;20039;-90
2023/01/04 01:28:43;;;;;;;9.32;2.17;;;8.30;99.90;;;;;;5056205;28;20036;-90
2023/01/04 01:31:12;;;;;;;10.10;2.17;;;8.20;99.90;;;;;;5056215;28;20036;-90
2023/01/04 01:33:39;;;;;;;5.20;1.67;;;8.30;99.90;;;;;;5056098;28;20032;-91
2023/01/04 01:36:05;;;;;;;5.32;1.90;;;8.20;99.90;;;;;;5056457;28;20036;-90
2023/01/04 01:38:31;;;;;;;7.32;1.98;;;8.20;99.90;;;;;;5074346;28;20046;-91
2023/01/04 01:40:57;;;;;;;8.35;1.95;;;8.30;99.90;;;;;;5076516;28;20032;-90
2023/01/04 01:43:50;;;;;;;6.97;2.00;;;8.20;99.90;;;;;;5075442;28;20420;-91
2023/01/04 01:46:22;;;;;;;10.48;2.17;;;8.20;99.90;;;;;;5059360;28;20413;-90
2023/01/04 01:48:50;;;;;;;10.13;2.08;;;8.20;99.90;;;;;;5059337;28;20485;-91
2023/01/04 01:51:17;;;;;;;7.75;2.03;;;8.20;99.90;;;;;;5076457;28;20048;-91
2023/01/04 01:53:46;;;;;;;6.47;1.90;;;8.20;99.90;;;;;;5059447;28;20036;-90
2023/01/04 01:56:16;;;;;;;12.07;2.20;;;8.20;99.90;;;;;;5076723;28;20040;-91
2023/01/04 01:58:46;;;;;;;8.48;2.03;;;8.20;99.90;;;;;;5076555;28;20118;-90
2023/01/04 02:01:12;;;;;;;7.80;2.00;;;8.30;99.90;;;;;;5076248;28;20115;-91
2023/01/04 02:03:41;;;;;;;6.30;1.63;;;8.30;99.90;;;;;;5075918;28;20036;-90
2023/01/04 02:06:16;;;;;;;5.78;1.75;;;8.30;99.90;;;;;;5059491;28;20118;-90
2023/01/04 02:08:42;;;;;;;7.68;1.67;;;8.30;99.90;;;;;;5076592;28;20123;-90
2023/01/04 02:11:08;;;;;;;6.43;1.60;;;8.30;99.90;;;;;;5076078;28;20036;-90
2023/01/04 02:16:32;;;;;;;8.57;2.33;;;8.30;99.90;;;;;;5076040;28;20048;-87
2023/01/04 02:19:43;;;;;;;7.72;2.20;;;8.40;99.90;;;;;;5075632;28;20131;-90
2023/01/04 02:22:20;;;;;;;5.95;1.98;;;8.40;99.90;;;;;;5075008;28;20509;-89
2023/01/04 02:25:04;;;;;;;5.68;1.92;;;8.40;99.90;;;;;;5074969;28;20501;-89
2023/01/04 02:27:41;;;;;;;7.03;1.70;;;8.40;99.90;;;;;;5058229;28;20124;-89
2023/01/04 02:30:43;;;;;;;8.88;2.42;;;8.40;99.90;;;;;;5075186;28;20085;-89
2023/01/04 02:33:26;;;;;;;7.80;1.75;;;8.40;99.90;;;;;;5058592;28;20068;-90
2023/01/04 02:36:09;;;;;;;4.43;1.75;;;8.40;99.90;;;;;;5075697;28;20070;-89
2023/01/04 02:38:57;;;;;;;7.88;2.20;;;8.40;99.90;;;;;;5075726;28;20052;-89
2023/01/04 02:41:45;;;;;;;9.32;2.55;;;8.50;99.90;;;;;;5075539;28;20040;-89
2023/01/04 02:47:05;;;;;;;4.50;1.83;;;8.50;99.90;;;;;;5074554;28;20048;-89
2023/01/04 02:52:15;;;;;;;3.58;1.42;;;8.60;99.90;;;;;;5074494;28;20040;-90
2023/01/04 02:54:43;;;;;;;6.10;1.85;;;8.60;99.90;;;;;;5074760;28;20516;-89
2023/01/04 02:57:24;;;;;;;5.63;1.80;;;8.60;99.90;;;;;;5058670;28;20036;-89
2023/01/04 03:00:04;;;;;;;5.40;1.40;;;8.70;99.90;;;;;;5058498;28;20044;-89
2023/01/04 03:06:22;;;;;;;6.35;1.80;;;8.70;99.90;;;;;;5054860;28;20048;-89
2023/01/04 03:08:59;;;;;;;4.10;1.23;;;8.80;99.90;;;;;;5055142;28;20041;-88
2023/01/04 03:14:21;;;;;;;3.40;1.23;;;8.80;99.90;;;;;;5054912;28;20455;-88
2023/01/04 03:16:49;;;;;;;3.55;1.40;;;8.80;99.90;;;;;;5054288;28;20055;-88
2023/01/04 03:19:50;;;;;;;6.88;1.30;;;8.80;99.90;;;;;;5037389;28;20044;-88
2023/01/04 03:22:05;;;;;;;3.53;1.40;;;8.80;99.90;;;;;;5053800;28;20445;-89
2023/01/04 03:36:10;;;;;;;4.80;1.90;;;9.10;99.90;;;;;;5054097;28;20462;-88
2023/01/04 03:50:52;;;;;;;3.67;1.55;;;9.30;99.90;;;;;;5048827;28;20053;-88
2023/01/04 03:53:19;;;;;;;3.25;1.25;;;9.40;99.90;;;;;;5027977;28;20032;-88
2023/01/04 03:55:46;;;;;;;2.47;1.25;;;9.40;99.90;;;;;;5052911;28;20040;-88
2023/01/04 03:58:12;;;;;;;4.95;1.80;;;9.40;99.90;;;;;;5053603;28;20040;-88
2023/01/04 04:00:37;;;;;;;4.43;1.45;;;9.40;99.90;;;;;;5036681;28;20044;-89
2023/01/04 04:03:11;;;;;;;3.92;1.60;;;9.40;99.90;;;;;;5036399;28;20036;-89
2023/01/04 04:08:27;;;;;;;4.75;1.48;;;9.40;99.90;;;;;;5053558;28;20057;-88
2023/01/04 04:10:56;;;;;;;4.78;1.48;;;9.50;99.90;;;;;;5036244;28;20028;-88
2023/01/04 04:13:22;;;;;;;4.97;1.63;;;9.50;99.90;;;;;;5035400;28;20062;-89
2023/01/04 04:15:47;;;;;;;3.47;1.63;;;9.50;99.90;;;;;;5035756;28;20043;-88
2023/01/04 04:18:13;;;;;;;3.85;1.42;;;9.50;99.90;;;;;;5052320;28;20037;-89
2023/01/04 04:20:39;;;;;;;5.55;1.63;;;9.50;99.90;;;;;;5052481;28;20414;-88
2023/01/04 04:23:04;;;;;;;4.40;1.95;;;9.60;99.90;;;;;;5036398;28;20039;-88
2023/01/04 04:25:30;;;;;;;3.00;1.42;;;9.60;99.90;;;;;;5036325;28;20033;-88
2023/01/04 04:27:56;;;;;;;4.22;1.83;;;9.60;99.90;;;;;;5053564;28;20502;-88
2023/01/04 04:30:21;;;;;;;3.92;1.73;;;9.60;99.90;;;;;;5052863;28;20547;-88
2023/01/04 04:32:47;;;;;;;2.45;1.08;;;9.70;99.90;;;;;;5036115;28;20120;-89
2023/01/04 04:35:12;;;;;;;3.30;1.38;;;9.70;99.90;;;;;;5053070;28;20090;-89
2023/01/04 04:37:38;;;;;;;2.45;1.20;;;9.80;99.90;;;;;;5053348;28;20401;-88
2023/01/04 04:40:05;;;;;;;3.22;1.50;;;9.80;99.90;;;;;;5052833;28;20079;-88
2023/01/04 04:42:30;;;;;;;3.55;1.48;;;9.80;99.90;;;;;;5052835;28;20048;-88
2023/01/04 04:44:56;;;;;;;3.67;1.30;;;9.80;99.90;;;;;;5052435;28;20032;-88
2023/01/04 04:47:21;;;;;;;2.10;1.20;;;9.90;99.90;;;;;;5052269;28;20033;-88
2023/01/04 04:49:47;;;;;;;1.92;1.08;;;9.90;99.90;;;;;;5052028;28;20054;-88
2023/01/04 04:52:12;;;;;;;2.55;1.08;;;9.90;99.90;;;;;;5051665;28;20444;-88
2023/01/04 04:54:38;;;;;;;4.20;1.60;;;9.90;99.90;;;;;;5052655;28;20037;-88
2023/01/04 04:57:04;;;;;;;3.78;1.67;;;10.00;99.90;;;;;;5035997;28;20036;-88
2023/01/04 04:59:29;;;;;;;2.88;1.17;;;10.00;99.90;;;;;;5036078;28;20081;-87
2023/01/04 05:01:55;;;;;;;2.38;1.20;;;10.00;99.90;;;;;;5052847;28;20028;-88
2023/01/04 05:04:21;;;;;;;2.35;1.23;;;10.10;99.90;;;;;;5035824;28;20075;-88
2023/01/04 05:06:48;;;;;;;2.88;1.30;;;10.10;99.90;;;;;;5052801;28;20471;-89
2023/01/04 05:09:14;;;;;;;3.63;1.58;;;10.10;99.90;;;;;;5052638;28;20417;-89
2023/01/04 05:14:26;;;;;;;3.83;2.17;;;10.10;99.90;;;;;;5055898;28;20040;-88
2023/01/04 05:16:52;;;;;;;2.33;1.20;;;10.20;99.90;;;;;;5039861;28;20046;-87
2023/01/04 05:19:18;;;;;;;4.18;1.70;;;10.20;99.90;;;;;;5056538;28;20067;-88
2023/01/04 05:21:43;;;;;;;3.58;1.60;;;10.20;99.90;;;;;;5056041;28;20501;-88
2023/01/04 05:24:12;;;;;;;3.72;1.80;;;10.20;99.90;;;;;;5039006;28;20044;-88
2023/01/04 05:26:38;;;;;;;3.28;1.30;;;10.20;99.90;;;;;;5056959;28;20068;-88
2023/01/04 05:29:04;;;;;;;4.45;1.63;;;10.20;99.90;;;;;;5056947;28;20041;-88
2023/01/04 05:31:30;;;;;;;5.70;2.35;;;10.30;99.90;;;;;;5056923;28;20102;-89
2023/01/04 05:33:55;;;;;;;3.88;1.73;;;10.30;99.90;;;;;;5040012;28;20047;-88
2023/01/04 05:36:21;;;;;;;5.30;2.42;;;10.40;99.90;;;;;;5040190;28;20448;-88
2023/01/04 05:38:46;;;;;;;4.32;1.90;;;10.40;99.90;;;;;;5057027;28;20125;-88
2023/01/04 05:43:56;;;;;;;3.33;1.75;;;10.50;99.90;;;;;;5056151;28;20041;-88
2023/01/04 05:46:21;;;;;;;6.70;2.92;;;10.50;99.90;;;;;;5039397;28;20078;-88
2023/01/04 05:48:47;;;;;;;5.82;2.25;;;10.50;99.90;;;;;;5039170;28;20036;-88
2023/01/04 05:51:12;;;;;;;5.97;2.58;;;10.50;99.90;;;;;;5055681;28;20040;-88
2023/01/04 05:53:38;;;;;;;5.60;2.08;;;10.60;99.90;;;;;;5055431;28;20032;-88
2023/01/04 05:56:04;;;;;;;5.22;2.38;;;10.60;99.90;;;;;;5040194;28;20111;-89
2023/01/04 05:58:29;;;;;;;5.90;2.53;;;10.70;99.90;;;;;;5056535;28;20494;-89
2023/01/04 06:00:55;;;;;;;5.35;2.28;;;10.70;99.90;;;;;;5056332;28;20041;-89
2023/01/04 06:03:21;;;;;;;6.45;2.85;;;10.70;99.90;;;;;;5039372;28;20498;-88
2023/01/04 06:05:50;;;;;;;6.88;3.13;;;10.70;99.90;;;;;;5039552;28;20044;-88
2023/01/04 06:08:16;;;;;;;6.38;2.75;;;10.80;99.90;;;;;;5039619;28;20051;-88
2023/01/04 06:10:41;;;;;;;8.90;2.92;;;10.70;99.90;;;;;;5039168;28;20036;-88
2023/01/04 06:13:07;;;;;;;6.55;3.05;;;10.80;99.90;;;;;;5054709;28;20033;-89
2023/01/04 06:15:33;;;;;;;4.93;2.13;;;10.80;99.90;;;;;;5055338;28;20063;-88
2023/01/04 06:17:58;;;;;;;6.63;2.70;;;10.80;99.90;;;;;;5038557;28;20044;-88
2023/01/04 06:20:24;;;;;;;8.52;3.13;;;10.80;99.90;;;;;;5055607;28;20087;-88
2023/01/04 06:22:49;;;;;;;7.22;2.72;;;10.80;99.90;;;;;;5055890;28;20055;-88
2023/01/04 06:25:16;;;;;;;6.60;2.88;;;10.80;99.90;;;;;;5054559;28;20574;-88
2023/01/04 06:27:41;;;;;;;6.05;2.53;;;10.80;99.90;;;;;;5039341;28;20033;-88
2023/01/04 06:30:07;;;;;;;7.05;2.67;;;10.90;99.90;;;;;;5055889;28;20039;-88
2023/01/04 06:32:33;;;;;;;10.63;2.97;;;10.90;99.90;;;;;;5038838;28;20037;-88
2023/01/04 06:34:59;;;;;;;6.40;2.53;;;10.90;99.90;;;;;;5038880;28;20041;-88
2023/01/04 06:37:24;;;;;;;8.05;2.90;;;10.90;99.90;;;;;;5055644;28;20040;-88
2023/01/04 06:39:50;;;;;;;6.85;2.58;;;10.90;99.90;;;;;;5055572;28;20042;-88
2023/01/04 06:44:59;;;;;;;5.10;2.20;;;10.90;99.90;;;;;;5054539;28;20041;-87
2023/01/04 06:47:25;;;;;;;4.05;1.77;;;10.90;99.90;;;;;;5054499;28;20041;-87
2023/01/04 06:49:51;;;;;;;3.80;1.65;;;10.90;99.90;;;;;;5037772;28;20029;-87
2023/01/04 06:52:17;;;;;;;5.85;2.22;;;10.90;99.90;;;;;;5054491;28;20033;-88
2023/01/04 06:54:42;;;;;;;3.17;1.60;;;10.90;99.90;;;;;;5038734;28;20037;-87
2023/01/04 06:57:08;;;;;;;2.95;1.42;;;10.90;99.90;;;;;;5055517;28;20037;-88
2023/01/04 06:59:33;;;;;;;3.92;1.80;;;11.00;99.90;;;;;;5055176;28;20520;-87
2023/01/04 07:01:59;;;;;;;3.05;1.45;;;11.00;99.90;;;;;;5055115;28;20047;-87
2023/01/04 07:04:25;;;;;;;3.33;1.65;;;11.00;99.90;;;;;;5054570;28;20037;-88
2023/01/04 07:06:50;;;;;;;3.95;1.13;;;10.90;99.90;;;;;;5038200;28;20120;-88
2023/01/04 07:09:16;;;;;;;2.97;1.45;;;11.00;99.90;;;;;;5054941;28;20075;-87
2023/01/04 07:11:41;;;;;;;4.30;1.27;;;11.00;99.90;;;;;;5053310;28;20037;-87
2023/01/04 07:14:07;;;;;;;3.10;1.30;;;11.00;99.90;;;;;;5053321;28;20037;-86
2023/01/04 07:16:32;;;;;;;4.00;1.30;;;11.00;99.90;;;;;;5054263;28;20037;-86
2023/01/04 07:18:58;;;;;;;2.60;1.17;;;11.00;99.90;;;;;;5053061;28;20439;-87
2023/01/04 07:21:25;;;;;;;3.95;1.52;;;11.00;99.90;;;;;;5054098;28;20101;-88
2023/01/04 07:23:51;;;;;;;3.78;1.25;;;11.00;99.90;;;;;;5054340;28;20045;-88
2023/01/04 07:26:16;;;;;;;3.42;1.45;;;11.10;99.90;;;;;;5038136;28;20037;-88
2023/01/04 07:31:26;;;;;;;2.60;1.20;;;11.10;99.90;;;;;;5054223;28;20079;-87
2023/01/04 07:33:51;;;;;;;2.70;1.23;;;11.10;99.90;;;;;;5054049;28;20475;-88
2023/01/04 07:36:17;;;;;;;2.38;1.20;;;11.10;99.90;;;;;;5053455;28;20056;-88
2023/01/04 07:38:43;;;;;;;2.72;1.27;;;11.00;99.90;;;;;;5053912;28;20033;-88
2023/01/04 07:41:09;;;;;;;2.45;1.23;;;11.10;99.90;;;;;;5036677;28;20089;-87
2023/01/04 07:43:34;;;;;;;3.22;1.15;;;11.10;99.90;;;;;;5035710;28;20032;-87
2023/01/04 07:46:00;;;;;;;3.20;1.40;;;11.10;99.90;;;;;;5053011;28;20040;-87
2023/01/04 07:48:28;;;;;;;3.85;1.42;;;11.10;99.90;;;;;;5036199;28;20032;-88
2023/01/04 07:50:53;;;;;;;3.72;1.33;;;11.10;99.90;;;;;;5052732;28;20108;-88
2023/01/04 07:53:19;;;;;;;3.50;1.50;;;11.10;99.90;;;;;;5036441;28;20060;-88
2023/01/04 07:55:45;;;;;;;4.13;1.60;;;11.10;99.90;;;;;;5050826;28;20052;-86
2023/01/04 07:58:10;;;;;;;3.08;1.20;;;11.10;99.90;;;;;;5035575;28;20579;-87
2023/01/04 08:00:36;;;;;;;4.65;1.95;;;11.10;99.90;;;;;;5052760;28;20036;-87
2023/01/04 08:03:02;;;;;;;4.32;1.83;;;11.10;99.90;;;;;;5052894;28;20375;-87
2023/01/04 08:05:30;;;;;;;3.97;1.58;;;11.20;99.90;;;;;;5036001;28;20113;-88
2023/01/04 08:07:56;;;;;;;3.53;1.45;;;11.20;99.90;;;;;;5036492;28;20040;-87
2023/01/04 08:10:21;;;;;;;6.15;2.13;;;11.20;99.90;;;;;;5035646;28;20036;-87
2023/01/04 08:12:47;;;;;;;4.05;1.67;;;11.20;99.90;;;;;;5051886;28;20028;-87
2023/01/04 08:15:14;;;;;;;5.85;2.08;;;11.20;99.90;;;;;;5052081;28;20036;-87
2023/01/04 08:17:39;;;;;;;5.35;2.13;;;11.20;99.90;;;;;;5051881;28;20050;-87
2023/01/04 08:20:06;;;;;;;4.40;1.75;;;11.20;99.90;;;;;;5052414;28;20040;-87
2023/01/04 08:22:31;;;;;;;3.50;1.33;;;11.20;99.90;;;;;;5052318;28;20040;-87
2023/01/04 08:24:57;;;;;;;6.18;2.20;;;11.20;99.90;;;;;;5052716;28;20062;-87
2023/01/04 08:27:23;;;;;;;4.57;1.77;;;11.20;99.90;;;;;;5036117;28;20623;-87
2023/01/04 08:29:48;;;;;;;5.15;2.00;;;11.30;99.90;;;;;;5052450;28;20484;-87
2023/01/04 08:32:14;;;;;;;5.57;2.53;;;11.30;99.90;;;;;;5051840;28;20040;-87
2023/01/04 08:34:39;;;;;;;4.15;1.75;;;11.30;99.90;;;;;;5051510;28;20040;-87
2023/01/04 08:37:05;;;;;;;5.50;2.22;;;11.30;99.90;;;;;;5051937;28;20036;-87
2023/01/04 08:39:34;;;;;;;5.32;2.38;;;11.30;99.90;;;;;;5051404;28;20043;-87
2023/01/04 08:42:00;;;;;;;4.65;2.03;;;11.40;99.90;;;;;;5052547;28;20097;-88
2023/01/04 08:44:26;;;;;;;5.72;2.47;;;11.40;99.90;;;;;;5052291;28;20440;-87
2023/01/04 08:46:53;;;;;;;6.63;2.70;;;11.40;99.90;;;;;;5052698;28;20032;-87
2023/01/04 08:49:19;;;;;;;7.03;2.45;;;11.40;99.90;;;;;;5038395;28;20036;-87
2023/01/04 08:51:45;;;;;;;4.55;2.05;;;11.40;99.90;;;;;;5039499;28;20041;-87
2023/01/04 08:54:12;;;;;;;6.35;2.53;;;11.40;99.90;;;;;;5056327;28;20032;-87
2023/01/04 08:56:38;;;;;;;4.85;2.13;;;11.40;99.90;;;;;;5039786;28;20044;-87
2023/01/04 08:59:04;;;;;;;6.35;2.50;;;11.40;99.90;;;;;;5056509;28;20513;-87
2023/01/04 09:01:34;;;;;;;6.13;2.22;;;11.40;99.90;;;;;;5039828;28;20044;-87
2023/01/04 09:04:00;;;;;;;6.50;2.80;;;11.40;99.90;;;;;;5055997;28;20047;-87
2023/01/04 09:06:26;;;;;;;5.70;2.33;;;11.40;99.90;;;;;;5056499;28;20545;-86
2023/01/04 09:08:52;;;;;;;6.75;2.58;;;11.40;99.90;;;;;;5055112;28;20153;-86
2023/01/04 09:11:20;;;;;;;4.65;1.95;;;11.40;99.90;;;;;;5055418;28;20028;-87
2023/01/04 09:13:45;;;;;;;5.53;2.08;;;11.50;99.90;;;;;;5053950;28;20036;-87
2023/01/04 09:16:18;;;;;;;5.60;1.95;;;11.40;99.90;;;;;;5055018;28;20044;-87
2023/01/04 09:18:44;;;;;;;4.18;1.90;;;11.50;99.90;;;;;;5056145;28;20044;-87
2023/01/04 09:21:13;;;;;;;4.25;1.80;;;11.50;99.90;;;;;;5055373;28;20047;-86
2023/01/04 09:23:39;;;;;;;4.55;1.80;;;11.50;99.90;;;;;;5038917;28;20047;-87
2023/01/04 09:26:06;;;;;;;4.03;1.65;;;11.50;99.90;;;;;;5055711;28;20044;-87
2023/01/04 09:28:31;;;;;;;7.40;1.98;;;11.50;99.90;;;;;;5055836;28;20029;-87
2023/01/04 09:30:57;;;;;;;5.30;2.10;;;11.50;99.90;;;;;;5055707;28;20446;-88
2023/01/04 09:33:22;;;;;;;4.00;1.50;;;11.50;99.90;;;;;;5039094;28;20032;-88
2023/01/04 09:35:48;;;;;;;5.15;1.83;;;11.50;99.90;;;;;;5039432;28;20116;-89
2023/01/04 09:38:14;;;;;;;3.10;1.55;;;11.50;99.90;;;;;;5055148;28;20456;-88
2023/01/04 09:40:46;;;;;;;4.18;1.77;;;11.50;99.90;;;;;;5055922;28;20032;-88
2023/01/04 09:43:19;;;;;;;4.25;1.90;;;11.50;99.90;;;;;;5038575;28;20040;-87
2023/01/04 09:45:48;;;;;;;5.00;2.03;;;11.50;99.90;;;;;;5037113;28;20039;-88
2023/01/04 09:48:19;;;;;;;5.50;1.70;;;11.50;99.90;;;;;;5054825;28;20032;-88
2023/01/04 09:50:58;;;;;;;8.55;2.03;;;11.50;99.90;;;;;;5052270;28;20545;-88
2023/01/04 09:53:37;;;;;;;3.80;1.58;;;11.50;99.90;;;;;;5037276;28;20036;-88
2023/01/04 09:56:29;;;;;;;3.50;1.27;;;11.50;99.90;;;;;;5054790;28;20059;-88
2023/01/04 09:58:56;;;;;;;4.05;1.40;;;11.60;99.90;;;;;;5053306;28;20049;-88
2023/01/04 10:01:32;;;;;;;3.83;1.35;;;11.60;99.90;;;;;;5055120;28;20051;-88
2023/01/04 10:04:11;;;;;;;3.03;1.30;;;11.60;99.90;;;;;;5055271;28;20473;-88
2023/01/04 10:06:37;;;;;;;2.33;1.10;;;11.60;99.90;;;;;;5054982;28;20414;-88
2023/01/04 10:09:10;;;;;;;1.77;0.95;;;11.60;99.90;;;;;;5038549;28;20032;-87
2023/01/04 10:12:00;;;;;;;3.30;1.02;;;11.60;99.90;;;;;;5037715;28;20036;-88
2023/01/04 10:14:52;;;;;;;2.47;0.90;;;11.70;99.90;;;;;;5054105;28;20036;-88
2023/01/04 10:17:57;;;;;;;2.65;1.13;;;11.70;99.90;;;;;;5054241;28;20072;-88
2023/01/04 10:20:37;;;;;;;2.30;0.98;;;11.70;99.90;;;;;;5054258;28;20659;-88
2023/01/04 10:23:17;;;;;;;1.48;0.90;;;11.70;99.90;;;;;;5038019;28;20047;-88
2023/01/04 10:26:10;;;;;;;1.77;0.75;;;11.60;99.90;;;;;;5054604;28;20533;-88
2023/01/04 10:28:55;;;;;;;1.55;0.77;;;11.70;99.90;;;;;;5028101;28;20055;-88
2023/01/04 10:31:51;;;;;;;1.25;0.75;;;11.70;99.90;;;;;;5037672;28;20544;-88
2023/01/04 10:34:29;;;;;;;1.95;0.70;;;11.70;99.90;;;;;;4998847;28;20052;-87
2023/01/04 10:37:12;;;;;;;0.50;0.47;;;11.70;99.90;;;;;;5063389;28;20442;-88
2023/01/04 10:39:39;;;;;;;0.70;0.63;;;11.70;99.90;;;;;;5036991;28;20028;-87
2023/01/04 10:42:08;;;;;;;1.05;0.63;;;11.70;99.90;;;;;;5053981;28;20119;-88
2023/01/04 10:44:53;;;;;;;2.53;0.90;;;11.70;99.90;;;;;;5053392;28;20114;-88
2023/01/04 10:47:28;;;;;;;0.68;0.57;;;11.70;99.90;;;;;;5053652;28;20037;-88
2023/01/04 10:50:00;;;;;;;1.27;0.80;;;11.80;99.90;;;;;;5037162;28;20103;-88
2023/01/04 10:52:46;;;;;;;2.80;1.00;;;11.80;99.90;;;;;;5060128;28;20028;-88
2023/01/04 10:55:20;;;;;;;2.70;1.02;;;11.80;99.90;;;;;;5052981;28;20040;-87
2023/01/04 10:57:55;;;;;;;2.25;1.05;;;11.80;99.90;;;;;;5035287;28;20037;-87
2023/01/04 11:00:40;;;;;;;2.72;0.95;;;11.90;99.90;;;;;;5051012;28;20123;-87
2023/01/04 11:03:17;;;;;;;2.08;0.85;;;11.90;99.90;;;;;;5053420;28;20032;-88
2023/01/04 11:06:08;;;;;;;2.10;1.02;;;11.90;99.90;;;;;;5053517;28;20066;-88
2023/01/04 11:08:43;;;;;;;3.13;1.00;;;11.90;99.90;;;;;;5053732;28;20028;-88
2023/01/04 11:11:16;;;;;;;1.73;0.88;;;12.00;99.90;;;;;;5052569;28;20041;-87
2023/01/04 11:13:41;;;;;;;;;;;12.00;99.90;;;;;;5037479;28;20041;-87
2023/01/04 11:16:07;;;;;;;1.48;0.73;;;12.00;99.90;;;;;;5053368;28;19927;-88
2023/01/04 11:18:36;;;;;;;2.03;0.90;;;12.00;99.90;;;;;;5053523;28;20028;-88
2023/01/04 11:21:07;;;;;;;2.13;1.05;;;12.00;99.90;;;;;;5036679;28;20039;-87
2023/01/04 11:23:33;;;;;;;1.95;0.90;;;12.00;99.90;;;;;;5053324;28;20128;-87
2023/01/04 11:26:24;;;;;;;5.35;1.90;;;12.10;99.90;;;;;;5037164;28;20123;-88
2023/01/04 11:29:05;;;;;;;3.38;1.40;;;12.20;99.90;;;;;;5052639;28;20155;-87
2023/01/04 11:31:46;;;;;;;3.53;1.05;;;12.20;99.90;;;;;;5036669;28;20036;-88
2023/01/04 11:34:12;;;;;;;2.60;0.93;;;12.20;99.90;;;;;;5050866;28;20043;-88
2023/01/04 11:36:45;;;;;;;5.07;1.27;;;12.20;99.90;;;;;;5037072;28;20036;-88
2023/01/04 11:39:22;;;;;;;5.88;1.27;;;12.20;99.90;;;;;;5035940;28;20122;-88
2023/01/04 11:41:56;;;;;;;5.47;1.65;;;12.30;99.90;;;;;;5036132;28;20494;-88
2023/01/04 11:44:23;;;;;;;7.05;1.73;;;12.30;99.90;;;;;;5052618;28;20036;-88
2023/01/04 11:47:13;;;;;;;5.68;1.52;;;12.40;99.90;;;;;;5053054;28;20037;-88
2023/01/04 11:49:38;;;;;;;8.93;2.00;;;12.40;99.90;;;;;;5051374;28;20037;-88
2023/01/04 11:52:07;;;;;;;10.82;2.92;;;12.40;99.90;;;;;;5052793;28;20738;-88
2023/01/04 11:54:33;;;;;;;5.75;1.88;;;12.50;99.90;;;;;;5052430;28;20036;-88
2023/01/04 11:57:00;;;;;;;5.20;1.77;;;12.50;99.90;;;;;;5053216;28;20409;-88
2023/01/04 11:59:25;;;;;;;6.97;1.65;;;12.50;99.90;;;;;;5052710;28;20068;-88
2023/01/04 12:02:10;;;;;;;10.50;2.80;;;12.60;99.90;;;;;;5053105;28;20067;-88
2023/01/04 12:04:35;;;;;;;8.88;3.03;;;12.60;99.90;;;;;;5052494;28;20047;-87
2023/01/04 12:07:23;;;;;;;5.55;1.38;;;12.60;99.90;;;;;;5032774;28;20032;-88
2023/01/04 12:09:48;;;;;;;5.50;1.73;;;12.60;99.90;;;;;;5029188;28;20042;-88
2023/01/04 12:12:14;;;;;;;9.57;2.70;;;12.60;99.90;;;;;;5035986;28;20119;-88
2023/01/04 12:14:46;;;;;;;5.28;1.73;;;12.70;99.90;;;;;;5035529;28;20414;-87
2023/01/04 12:17:28;;;;;;;9.18;1.55;;;12.70;99.90;;;;;;5036217;28;20119;-88
2023/01/04 12:19:55;;;;;;;5.60;1.42;;;12.70;99.90;;;;;;5035393;28;20161;-88
2023/01/04 12:22:37;;;;;;;7.47;2.00;;;12.70;99.90;;;;;;5035658;28;20072;-88
2023/01/04 12:25:06;;;;;;;3.95;1.27;;;12.70;99.90;;;;;;5050589;28;20083;-88
2023/01/04 12:27:32;;;;;;;8.05;1.15;;;12.70;99.90;;;;;;5049775;28;20029;-88
2023/01/04 12:30:04;;;;;;;5.65;0.82;;;12.60;99.90;;;;;;5035715;28;20090;-88
2023/01/04 12:32:30;;;;;;;4.00;0.50;;;12.60;99.90;;;;;;5035201;28;20043;-88
2023/01/04 12:34:56;;;;;;;4.90;1.25;;;12.50;99.90;;;;;;5035420;28;20044;-88
2023/01/04 12:37:37;;;;;;;4.20;0.50;;;12.50;99.90;;;;;;5052563;28;20425;-87
2023/01/04 12:40:23;;;;;;;1.45;0.52;;;12.50;99.90;;;;;;5073875;28;20040;-88
2023/01/04 12:43:13;;;;;;;1.40;0.65;;;12.50;99.90;;;;;;5035584;28;20090;-87
2023/01/04 12:45:39;;;;;;;0.70;0.35;;;12.50;99.90;;;;;;5052232;28;20131;-88
2023/01/04 12:51:25;;;;;;;4.03;0.75;;;12.50;99.90;;;;;;5052180;28;20510;-87
2023/01/04 12:54:30;;;;;;;6.00;0.77;;;12.40;99.90;;;;;;5035460;28;20037;-87
2023/01/04 12:57:20;;;;;;;4.15;0.80;;;12.40;99.90;;;;;;5050672;28;20090;-88
2023/01/04 13:00:00;;;;;;;2.17;0.73;;;12.30;99.90;;;;;;5035623;28;20513;-88
2023/01/04 13:02:27;;;;;;;2.72;0.55;;;12.30;99.90;;;;;;5052033;28;20082;-87
2023/01/04 13:05:01;;;;;;;2.40;0.65;;;12.30;99.90;;;;;;5052002;28;20123;-87
2023/01/04 13:07:31;;;;;;;5.32;0.90;;;12.30;99.90;;;;;;5052434;28;20048;-88
2023/01/04 13:10:00;;;;;;;4.90;0.90;;;12.40;99.90;;;;;;5052286;28;20029;-88
2023/01/04 13:12:51;;;;;;;4.10;1.65;;;12.40;99.90;;;;;;5052555;28;20064;-87
2023/01/04 13:15:23;;;;;;;4.95;1.23;;;12.50;99.90;;;;;;5035551;28;20032;-88
2023/01/04 13:17:49;;;;;;;7.18;1.55;;;12.50;99.90;;;;;;5035937;28;20578;-88
2023/01/04 13:20:19;;;;;;;5.55;1.27;;;12.50;99.90;;;;;;5034874;28;20127;-88
2023/01/04 13:22:50;;;;;;;9.50;2.30;;;12.50;99.90;;;;;;5052383;28;20497;-88
2023/01/04 13:25:17;;;;;;;8.70;1.20;;;12.50;99.90;;;;;;5035205;28;20040;-88
2023/01/04 13:28:01;;;;;;;6.03;1.45;;;12.50;99.90;;;;;;5035865;28;20127;-87
2023/01/04 13:30:36;;;;;;;6.32;1.23;;;12.50;99.90;;;;;;5051950;28;20043;-88
2023/01/04 13:33:17;;;;;;;8.60;1.63;;;12.50;99.90;;;;;;5035219;28;20117;-88
2023/01/04 13:35:44;;;;;;;15.38;3.45;;;12.50;99.90;;;;;;5038474;28;20119;-88
2023/01/04 13:38:15;;;;;;;9.98;1.52;;;12.60;99.90;;;;;;5055651;28;20091;-88
2023/01/04 13:40:45;;;;;;;7.15;1.77;;;12.60;99.90;;;;;;5038733;28;20556;-88
2023/01/04 13:43:41;;;;;;;8.38;1.92;;;12.50;99.90;;;;;;5038754;28;20040;-88
2023/01/04 13:46:17;;;;;;;7.07;1.75;;;12.50;99.90;;;;;;5052819;28;20518;-88
2023/01/04 13:48:46;;;;;;;14.50;3.55;;;12.50;99.90;;;;;;5038876;28;20040;-88
2023/01/04 13:51:21;;;;;;;9.43;2.03;;;12.60;99.90;;;;;;5038742;28;20044;-87
2023/01/04 13:53:53;;;;;;;9.73;1.80;;;12.60;99.90;;;;;;5038558;28;20036;-88
2023/01/04 13:56:21;;;;;;;17.88;3.80;;;12.60;99.90;;;;;;5035796;28;20067;-87
2023/01/04 13:58:47;;;;;;;11.35;2.00;;;12.60;99.90;;;;;;5055408;28;20090;-88
2023/01/04 14:01:21;;;;;;;17.25;3.83;;;12.60;99.90;;;;;;5054392;28;20048;-88